Time;durP1;ratioP1;P1;durP2;ratioP2;P2;SDS_P1;SDS_P2;PMS_P1;PMS_P2;Temp;Humidity;BMP_temperature;BMP_pressure;BME280_temperature;BME280_humidity;BME280_pressure;Samples;Min_cycle;Max_cycle;Signal;HPM_P1;HPM_P2
2024/03/04 00:01:56;;;;;;;12.10;9.20;;;;;;;9.85;86.34;153889.16;5029408;28;20574;-87
2024/03/04 00:04:23;;;;;;;10.20;8.33;;;;;;;9.83;86.22;153883.97;5048080;28;20457;-87
2024/03/04 00:06:49;;;;;;;10.77;8.23;;;;;;;9.77;85.27;153869.75;5046079;28;20537;-86
2024/03/04 00:09:16;;;;;;;10.87;9.20;;;;;;;9.75;86.97;153864.56;5046173;28;20450;-87
2024/03/04 00:11:43;;;;;;;10.17;7.90;;;;;;;9.67;87.12;153842.56;5037663;28;20502;-87
2024/03/04 00:14:11;;;;;;;13.60;9.57;;;;;;;9.67;88.48;153842.56;5047953;28;20451;-86
2024/03/04 00:16:41;;;;;;;9.83;8.33;;;;;;;9.66;87.48;153840.00;5045149;28;20446;-87
2024/03/04 00:19:07;;;;;;;10.03;8.47;;;;;;;9.65;86.96;153837.41;5048689;28;20439;-87
2024/03/04 00:21:34;;;;;;;9.47;8.03;;;;;;;9.67;87.73;153842.56;5043309;28;20483;-86
2024/03/04 00:24:00;;;;;;;10.40;7.70;;;;;;;9.67;87.54;153843.88;5035063;28;20716;-86
2024/03/04 00:26:27;;;;;;;12.83;9.47;;;;;;;9.64;88.29;153836.09;5045720;28;20451;-86
2024/03/04 00:28:53;;;;;;;9.77;7.87;;;;;;;9.51;87.71;153801.16;5044985;28;20539;-86
2024/03/04 00:31:21;;;;;;;10.00;8.10;;;;;;;9.39;87.56;153771.44;5037024;28;20459;-85
2024/03/04 00:33:49;;;;;;;10.73;8.30;;;;;;;9.34;88.01;153757.22;5045575;28;20423;-86
2024/03/04 00:36:15;;;;;;;9.63;8.10;;;;;;;9.22;88.11;153727.44;5045773;28;20781;-87
2024/03/04 00:38:43;;;;;;;9.57;7.63;;;;;;;9.12;88.55;153702.88;5043413;28;20463;-87
2024/03/04 00:41:09;;;;;;;10.70;8.13;;;;;;;9.06;89.06;153686.06;5039595;28;20479;-86
2024/03/04 00:43:36;;;;;;;10.20;9.20;;;;;;;9.02;89.26;153675.72;5045951;28;20447;-86
2024/03/04 00:46:03;;;;;;;10.77;8.80;;;;;;;9.05;90.20;153683.50;5046530;28;20453;-87
2024/03/04 00:48:31;;;;;;;9.97;8.67;;;;;;;9.05;90.79;153683.50;5043552;28;20447;-87
2024/03/04 00:50:58;;;;;;;12.30;9.50;;;;;;;8.99;90.66;153669.25;5044541;28;20451;-87
2024/03/04 00:53:25;;;;;;;12.27;9.30;;;;;;;8.98;90.95;153665.34;5034719;28;20437;-87
2024/03/04 00:55:52;;;;;;;10.47;9.37;;;;;;;8.99;90.87;153667.97;5036854;28;20439;-86
2024/03/04 00:58:18;;;;;;;15.23;9.63;;;;;;;9.07;90.80;153688.66;5038093;28;20447;-86
2024/03/04 01:00:45;;;;;;;11.20;9.60;;;;;;;9.17;90.78;153714.50;5042268;28;20483;-86
2024/03/04 01:03:11;;;;;;;10.93;8.50;;;;;;;9.19;90.57;153719.69;5036794;28;20452;-86
2024/03/04 01:05:39;;;;;;;14.33;9.57;;;;;;;9.07;90.00;153688.66;5041284;28;20439;-87
2024/03/04 01:08:07;;;;;;;15.23;9.73;;;;;;;8.96;90.14;153660.19;5042331;28;20488;-85
2024/03/04 01:10:34;;;;;;;12.97;8.67;;;;;;;8.90;90.89;153645.97;5041753;28;20492;-86
2024/03/04 01:13:00;;;;;;;11.80;8.97;;;;;;;8.87;91.51;153636.94;5052880;28;20489;-87
2024/03/04 01:15:27;;;;;;;11.30;9.63;;;;;;;8.87;92.00;153636.94;5052370;28;20446;-87
2024/03/04 01:17:53;;;;;;;17.37;10.23;;;;;;;8.86;92.69;153635.66;5051889;28;20877;-86
2024/03/04 01:20:21;;;;;;;11.37;8.50;;;;;;;8.86;92.33;153634.34;5050898;28;20985;-87
2024/03/04 01:22:49;;;;;;;15.70;10.80;;;;;;;8.82;92.55;153623.97;5039916;28;20446;-87
2024/03/04 01:25:16;;;;;;;10.90;8.83;;;;;;;8.77;92.46;153612.34;5043707;28;20576;-86
2024/03/04 01:27:43;;;;;;;13.27;9.80;;;;;;;8.73;92.55;153602.03;5048968;28;20439;-87
2024/03/04 01:30:10;;;;;;;12.27;9.33;;;;;;;8.69;92.51;153590.38;5049433;28;20460;-86
2024/03/04 01:32:37;;;;;;;11.57;9.03;;;;;;;8.68;93.06;153587.81;5040751;28;20427;-86
2024/03/04 01:35:07;;;;;;;12.20;9.97;;;;;;;8.68;93.21;153587.81;5038394;28;20454;-87
2024/03/04 01:37:34;;;;;;;10.87;9.43;;;;;;;8.68;93.81;153587.81;5052172;28;20489;-86
2024/03/04 01:40:03;;;;;;;11.93;9.10;;;;;;;8.66;93.54;153582.66;5049158;28;21075;-87
2024/03/04 01:42:29;;;;;;;12.23;8.80;;;;;;;8.61;93.48;153569.69;5051324;28;20864;-86
2024/03/04 01:44:56;;;;;;;13.40;9.30;;;;;;;8.60;93.27;153568.44;5050383;28;20869;-87
2024/03/04 01:47:23;;;;;;;12.00;9.20;;;;;;;8.57;93.13;153561.97;5041377;28;20447;-86
2024/03/04 01:49:51;;;;;;;11.03;8.70;;;;;;;8.54;93.38;153554.19;5057533;28;20459;-86
2024/03/04 01:52:18;;;;;;;10.57;8.53;;;;;;;8.51;93.59;153545.13;5049533;28;20446;-86
2024/03/04 01:54:46;;;;;;;11.90;9.30;;;;;;;8.45;93.82;153530.91;5050554;28;20461;-86
2024/03/04 01:57:17;;;;;;;9.93;8.70;;;;;;;8.45;94.06;153529.63;5052156;28;20960;-86
2024/03/04 01:59:45;;;;;;;11.73;9.63;;;;;;;8.42;93.76;153521.84;5037452;28;20466;-87
2024/03/04 02:02:11;;;;;;;10.67;8.40;;;;;;;8.38;93.54;153511.53;5044173;28;20489;-86
2024/03/04 02:04:39;;;;;;;9.60;8.60;;;;;;;8.35;93.70;153505.06;5041834;28;20462;-86
2024/03/04 02:07:06;;;;;;;13.57;9.80;;;;;;;8.31;93.68;153494.72;5049012;28;20479;-86
2024/03/04 02:09:34;;;;;;;12.77;8.57;;;;;;;8.30;94.16;153492.16;5047128;28;20969;-86
2024/03/04 02:12:01;;;;;;;11.43;9.00;;;;;;;8.30;94.20;153492.16;5044475;28;20674;-86
2024/03/04 02:14:30;;;;;;;13.13;10.40;;;;;;;8.30;94.31;153492.16;5047330;28;20900;-85
2024/03/04 02:16:56;;;;;;;13.53;9.73;;;;;;;8.28;94.68;153487.00;5049566;28;20965;-86
2024/03/04 02:19:23;;;;;;;12.77;10.10;;;;;;;8.26;94.75;153481.75;5049819;28;20447;-76
2024/03/04 02:21:52;;;;;;;13.43;10.50;;;;;;;8.21;94.98;153468.81;5047799;28;20480;-76
2024/03/04 02:24:20;;;;;;;11.33;9.00;;;;;;;8.23;95.43;153472.72;5060414;28;20455;-76
2024/03/04 02:26:47;;;;;;;13.60;10.20;;;;;;;8.21;95.72;153468.81;5044317;28;20999;-76
2024/03/04 02:29:14;;;;;;;12.43;10.40;;;;;;;8.22;96.16;153470.13;5049799;28;20489;-76
2024/03/04 02:31:40;;;;;;;15.37;10.30;;;;;;;8.20;96.49;153466.28;5046682;28;20987;-76
2024/03/04 02:34:07;;;;;;;13.77;10.80;;;;;;;8.15;96.19;153452.03;5038744;28;20432;-75
2024/03/04 02:36:34;;;;;;;13.10;10.23;;;;;;;8.09;96.15;153437.81;5038620;28;20465;-76
2024/03/04 02:39:03;;;;;;;13.87;11.00;;;;;;;8.05;96.20;153427.47;5048206;28;20946;-75
2024/03/04 02:41:31;;;;;;;15.10;12.03;;;;;;;8.06;96.71;153430.06;5045253;28;20466;-76
2024/03/04 02:43:58;;;;;;;14.70;11.50;;;;;;;8.07;97.08;153432.66;5048903;28;20881;-76
2024/03/04 02:46:24;;;;;;;16.60;11.63;;;;;;;8.08;97.36;153433.94;5040912;28;20459;-75
2024/03/04 02:48:55;;;;;;;13.60;11.00;;;;;;;8.07;97.64;153432.66;5037831;28;20875;-75
2024/03/04 02:51:21;;;;;;;14.73;11.97;;;;;;;8.06;97.84;153430.06;5042929;28;20513;-75
2024/03/04 02:53:48;;;;;;;14.23;10.87;;;;;;;8.02;97.57;153418.44;5046895;28;20501;-76
2024/03/04 02:56:14;;;;;;;16.80;12.20;;;;;;;7.98;97.35;153409.41;5032713;28;20443;-76
2024/03/04 02:58:42;;;;;;;19.33;11.27;;;;;;;7.93;97.65;153397.78;5047049;28;20438;-76
2024/03/04 03:01:09;;;;;;;15.70;12.17;;;;;;;7.92;98.00;153393.88;5043536;28;20595;-76
2024/03/04 03:03:35;;;;;;;16.07;12.80;;;;;;;7.91;98.22;153391.31;5035272;28;20474;-76
2024/03/04 03:06:02;;;;;;;16.87;12.13;;;;;;;7.92;98.40;153393.88;5047090;28;20463;-76
2024/03/04 03:08:28;;;;;;;16.33;11.80;;;;;;;7.91;98.58;153391.31;5042589;28;20917;-75
2024/03/04 03:10:55;;;;;;;13.53;10.30;;;;;;;7.90;98.77;153390.03;5039308;28;20467;-76
2024/03/04 03:13:22;;;;;;;15.10;11.00;;;;;;;7.89;98.82;153386.13;5037273;28;20487;-76
2024/03/04 03:15:50;;;;;;;14.03;11.00;;;;;;;7.89;99.16;153386.13;5043600;28;20876;-76
2024/03/04 03:18:17;;;;;;;16.10;12.60;;;;;;;7.88;98.97;153383.56;5054427;28;20438;-76
2024/03/04 03:20:44;;;;;;;16.70;12.40;;;;;;;7.88;99.11;153384.88;5045439;28;20454;-76
2024/03/04 03:23:10;;;;;;;15.30;11.60;;;;;;;7.88;99.10;153383.56;5048538;28;20431;-76
2024/03/04 03:25:37;;;;;;;11.93;10.40;;;;;;;7.90;99.38;153390.03;5038697;28;20471;-76
2024/03/04 03:28:04;;;;;;;14.17;11.50;;;;;;;7.94;99.49;153399.09;5041146;28;20452;-76
2024/03/04 03:30:30;;;;;;;13.80;11.57;;;;;;;7.93;99.49;153396.47;5030955;28;20573;-75
2024/03/04 03:32:58;;;;;;;14.80;11.00;;;;;;;7.92;99.47;153393.88;5045824;28;20998;-76
2024/03/04 03:35:25;;;;;;;15.77;12.10;;;;;;;7.89;99.62;153386.13;5045023;28;20490;-75
2024/03/04 03:37:51;;;;;;;13.37;11.07;;;;;;;7.88;99.49;153383.56;5046614;28;20450;-75
2024/03/04 03:40:18;;;;;;;13.57;11.10;;;;;;;7.87;99.65;153382.25;5033235;28;20497;-75
2024/03/04 03:42:45;;;;;;;16.43;11.83;;;;;;;7.87;99.69;153380.97;5049296;28;20965;-76
2024/03/04 03:45:11;;;;;;;13.90;11.40;;;;;;;7.89;99.81;153386.13;5037935;28;20449;-75
2024/03/04 03:47:41;;;;;;;14.10;11.37;;;;;;;7.91;100.00;153391.31;5042728;28;20459;-76
2024/03/04 03:50:09;;;;;;;14.70;11.37;;;;;;;7.92;100.00;153395.19;5042051;28;20461;-76
2024/03/04 03:52:36;;;;;;;13.17;10.73;;;;;;;7.96;100.00;153404.22;5045692;28;20610;-76
2024/03/04 03:55:03;;;;;;;17.50;12.47;;;;;;;7.95;100.00;153401.63;5046812;28;20530;-76
2024/03/04 03:57:30;;;;;;;21.83;12.50;;;;;;;7.99;100.00;153413.25;5041984;28;20881;-76
2024/03/04 03:59:57;;;;;;;14.93;11.70;;;;;;;8.02;100.00;153419.75;5036527;28;20455;-76
2024/03/04 04:02:25;;;;;;;14.90;12.30;;;;;;;8.07;100.00;153432.66;5046702;28;20477;-75
2024/03/04 04:04:51;;;;;;;15.70;11.93;;;;;;;8.10;100.00;153440.38;5026476;28;20546;-75
2024/03/04 04:07:19;;;;;;;17.30;11.13;;;;;;;8.13;100.00;153448.13;5043584;28;20823;-76
2024/03/04 04:09:46;;;;;;;15.90;12.07;;;;;;;8.15;100.00;153453.34;5038704;28;20441;-76
2024/03/04 04:12:12;;;;;;;18.00;12.57;;;;;;;8.16;100.00;153455.91;5047154;28;20457;-76
2024/03/04 04:14:39;;;;;;;17.40;12.40;;;;;;;8.25;100.00;153477.88;5043798;28;21007;-76
2024/03/04 04:17:05;;;;;;;15.20;12.33;;;;;;;8.28;100.00;153485.69;5044186;28;20454;-75
2024/03/04 04:19:34;;;;;;;17.13;12.90;;;;;;;8.25;100.00;153477.88;5046086;28;20454;-75
2024/03/04 04:22:00;;;;;;;21.10;12.77;;;;;;;8.25;100.00;153477.88;5042658;28;20482;-76
2024/03/04 04:24:28;;;;;;;18.37;12.70;;;;;;;8.26;100.00;153481.75;5043666;28;20550;-76
2024/03/04 04:26:55;;;;;;;17.50;13.53;;;;;;;8.27;100.00;153484.41;5046497;28;20533;-75
2024/03/04 04:29:21;;;;;;;18.37;11.80;;;;;;;8.28;100.00;153487.00;5042857;28;20909;-76
2024/03/04 04:31:48;;;;;;;17.30;12.53;;;;;;;8.29;100.00;153489.56;5046952;28;20470;-76
2024/03/04 04:34:15;;;;;;;19.30;13.00;;;;;;;8.29;100.00;153489.56;5043922;28;20510;-75
2024/03/04 04:36:47;;;;;;;17.07;12.10;;;;;;;8.31;100.00;153493.47;5047215;28;20485;-76
2024/03/04 04:39:15;;;;;;;18.50;12.50;;;;;;;8.32;100.00;153496.00;5044162;28;20450;-75
2024/03/04 04:41:42;;;;;;;18.10;13.57;;;;;;;8.32;100.00;153496.00;5046130;28;20605;-75
2024/03/04 04:44:09;;;;;;;18.00;12.70;;;;;;;8.33;100.00;153498.63;5041641;28;20461;-75
2024/03/04 04:46:37;;;;;;;20.60;13.80;;;;;;;8.35;100.00;153505.06;5039489;28;20459;-75
2024/03/04 04:49:03;;;;;;;16.03;12.63;;;;;;;8.36;100.00;153506.38;5047915;28;20451;-75
2024/03/04 04:51:30;;;;;;;17.47;14.00;;;;;;;8.31;100.00;153493.47;5037144;28;20489;-76
2024/03/04 04:53:57;;;;;;;19.50;14.00;;;;;;;8.29;100.00;153488.25;5046503;28;20486;-75
2024/03/04 04:56:23;;;;;;;18.30;12.50;;;;;;;8.31;100.00;153494.72;5040107;28;20455;-74
2024/03/04 04:58:51;;;;;;;19.20;12.77;;;;;;;8.31;100.00;153494.72;5047021;28;20804;-74
2024/03/04 05:01:25;;;;;;;18.07;13.50;;;;;;;8.34;100.00;153502.47;5040147;28;20463;-74
2024/03/04 05:03:52;;;;;;;21.13;13.90;;;;;;;8.34;100.00;153502.47;5041031;28;20431;-75
2024/03/04 05:06:18;;;;;;;20.00;14.10;;;;;;;8.34;100.00;153502.47;5039706;28;20458;-74
2024/03/04 05:08:45;;;;;;;21.20;14.83;;;;;;;8.35;100.00;153505.06;5047050;28;20442;-75
2024/03/04 05:11:11;;;;;;;19.70;13.57;;;;;;;8.35;100.00;153503.78;5040899;28;20799;-74
2024/03/04 05:13:38;;;;;;;21.33;14.80;;;;;;;8.36;100.00;153506.38;5044861;28;20430;-75
2024/03/04 05:16:06;;;;;;;19.93;13.57;;;;;;;8.36;100.00;153507.69;5039250;28;20570;-75
2024/03/04 05:18:33;;;;;;;20.13;13.70;;;;;;;8.37;100.00;153508.94;5044466;28;20447;-74
2024/03/04 05:20:59;;;;;;;22.70;14.77;;;;;;;8.36;100.00;153506.38;5046116;28;21018;-75
2024/03/04 05:23:26;;;;;;;21.27;13.73;;;;;;;8.34;100.00;153502.47;5044984;28;20475;-75
2024/03/04 05:25:53;;;;;;;24.37;15.47;;;;;;;8.36;100.00;153507.69;5039140;28;20455;-75
2024/03/04 05:28:19;;;;;;;23.57;14.80;;;;;;;8.37;100.00;153510.22;5045587;28;21383;-74
2024/03/04 05:30:46;;;;;;;19.63;13.23;;;;;;;8.38;100.00;153512.84;5045441;28;20477;-75
2024/03/04 05:33:13;;;;;;;22.53;16.47;;;;;;;8.41;100.00;153519.28;5048774;28;20454;-75
2024/03/04 05:35:39;;;;;;;22.57;15.30;;;;;;;8.40;100.00;153518.00;5038969;28;20512;-75
2024/03/04 05:38:06;;;;;;;20.43;14.37;;;;;;;8.41;100.00;153520.59;5054847;28;20449;-76
2024/03/04 05:40:32;;;;;;;22.00;14.57;;;;;;;8.41;100.00;153519.28;5047873;28;20516;-75
2024/03/04 05:42:59;;;;;;;23.57;15.00;;;;;;;8.42;100.00;153523.16;5037286;28;20872;-76
2024/03/04 05:45:27;;;;;;;19.17;14.00;;;;;;;8.43;100.00;153525.75;5046699;28;20458;-75
2024/03/04 05:47:54;;;;;;;22.40;15.60;;;;;;;8.45;100.00;153530.91;5046812;28;20954;-75
2024/03/04 05:50:22;;;;;;;18.97;13.17;;;;;;;8.47;100.00;153536.06;5044914;28;20810;-75
2024/03/04 05:52:48;;;;;;;23.00;13.77;;;;;;;8.46;100.00;153533.53;5042245;28;20512;-76
2024/03/04 05:55:16;;;;;;;23.93;14.90;;;;;;;8.45;100.00;153530.91;5049821;28;20443;-75
2024/03/04 05:57:43;;;;;;;21.40;15.23;;;;;;;8.44;100.00;153528.34;5045381;28;20427;-75
2024/03/04 06:00:14;;;;;;;22.97;14.77;;;;;;;8.44;100.00;153528.34;5048688;28;20423;-76
2024/03/04 06:02:42;;;;;;;20.17;13.70;;;;;;;8.51;100.00;153545.13;5046426;28;20537;-75
2024/03/04 06:05:11;;;;;;;23.97;15.80;;;;;;;8.54;100.00;153552.91;5040716;28;20455;-76
2024/03/04 06:07:39;;;;;;;22.27;15.33;;;;;;;8.55;100.00;153556.75;5037035;28;20479;-75
2024/03/04 06:10:06;;;;;;;20.87;15.57;;;;;;;8.57;100.00;153560.66;5040740;28;20774;-76
2024/03/04 06:12:33;;;;;;;26.80;15.03;;;;;;;8.58;100.00;153564.53;5038870;28;20559;-76
2024/03/04 06:14:59;;;;;;;25.20;14.20;;;;;;;8.58;100.00;153564.53;5043237;28;20539;-75
2024/03/04 06:17:26;;;;;;;26.70;16.30;;;;;;;8.60;100.00;153567.13;5040192;28;20458;-75
2024/03/04 06:19:53;;;;;;;24.23;16.70;;;;;;;8.61;100.00;153570.97;5039540;28;20474;-75
2024/03/04 06:22:19;;;;;;;21.43;15.50;;;;;;;8.56;100.00;153559.38;5047277;28;20494;-75
2024/03/04 06:24:47;;;;;;;24.13;16.37;;;;;;;8.54;100.00;153554.19;5043694;28;20456;-74
2024/03/04 06:27:14;;;;;;;29.73;18.60;;;;;;;8.54;100.00;153552.91;5037511;28;20921;-75
2024/03/04 06:29:40;;;;;;;27.47;17.40;;;;;;;8.54;100.00;153554.19;5053779;28;20965;-74
2024/03/04 06:32:08;;;;;;;28.17;18.83;;;;;;;8.54;100.00;153554.19;5041249;28;20481;-74
2024/03/04 06:34:34;;;;;;;28.23;18.60;;;;;;;8.55;100.00;153556.75;5039746;28;20458;-74
2024/03/04 06:37:01;;;;;;;27.90;19.10;;;;;;;8.55;100.00;153555.50;5053841;28;20525;-75
2024/03/04 06:39:27;;;;;;;29.67;18.17;;;;;;;8.54;100.00;153554.19;5040414;28;20822;-76
2024/03/04 06:41:55;;;;;;;31.87;19.10;;;;;;;8.53;100.00;153551.59;5038609;28;21007;-75
2024/03/04 06:44:22;;;;;;;28.47;19.10;;;;;;;8.53;100.00;153551.59;5037940;28;20573;-75
2024/03/04 06:46:49;;;;;;;32.30;19.97;;;;;;;8.56;100.00;153558.06;5054594;28;21000;-75
2024/03/04 06:49:16;;;;;;;33.13;19.20;;;;;;;8.55;100.00;153556.75;5037428;28;20541;-75
2024/03/04 06:51:42;;;;;;;29.70;19.33;;;;;;;8.55;100.00;153556.75;5038098;28;20463;-75
2024/03/04 06:54:10;;;;;;;29.13;18.43;;;;;;;8.56;100.00;153558.06;5036500;28;20456;-75
2024/03/04 06:56:37;;;;;;;33.40;19.40;;;;;;;8.57;100.00;153561.97;5041481;28;20462;-75
2024/03/04 06:59:05;;;;;;;33.40;18.23;;;;;;;8.60;100.00;153567.13;5039218;28;20451;-75
2024/03/04 07:01:31;;;;;;;32.60;19.00;;;;;;;8.60;100.00;153568.44;5036346;28;20454;-75
2024/03/04 07:03:58;;;;;;;32.87;18.97;;;;;;;8.60;100.00;153567.13;5039921;28;20861;-75
2024/03/04 07:06:25;;;;;;;31.40;18.63;;;;;;;8.60;100.00;153567.13;5038829;28;20922;-75
2024/03/04 07:08:52;;;;;;;36.10;19.63;;;;;;;8.60;100.00;153567.13;5053140;28;20809;-75
2024/03/04 07:11:19;;;;;;;31.83;18.23;;;;;;;8.61;100.00;153569.69;5037818;28;20881;-75
2024/03/04 07:13:45;;;;;;;28.17;17.87;;;;;;;8.63;100.00;153574.88;5040667;28;20478;-75
2024/03/04 07:16:15;;;;;;;33.43;18.87;;;;;;;8.62;100.00;153572.28;5037758;28;21075;-75
2024/03/04 07:18:42;;;;;;;30.30;19.90;;;;;;;8.62;100.00;153573.59;5039216;28;20459;-75
2024/03/04 07:21:09;;;;;;;32.60;18.83;;;;;;;8.63;100.00;153574.88;5042647;28;20470;-74
2024/03/04 07:23:35;;;;;;;33.07;19.97;;;;;;;8.62;100.00;153572.28;5055008;28;20493;-74
2024/03/04 07:26:05;;;;;;;31.23;18.43;;;;;;;8.62;100.00;153572.28;5038193;28;20467;-75
2024/03/04 07:28:32;;;;;;;38.27;20.70;;;;;;;8.64;100.00;153577.44;5038306;28;20447;-75
2024/03/04 07:30:59;;;;;;;32.37;19.20;;;;;;;8.65;100.00;153580.03;5038227;28;20923;-75
2024/03/04 07:33:27;;;;;;;29.87;20.60;;;;;;;8.67;100.00;153585.22;5050813;28;20456;-75
2024/03/04 07:35:54;;;;;;;36.80;20.83;;;;;;;8.66;100.00;153582.66;5054417;28;20468;-74
2024/03/04 07:38:21;;;;;;;33.80;20.93;;;;;;;8.65;100.00;153580.03;5037633;28;20459;-74
2024/03/04 07:40:47;;;;;;;29.80;16.97;;;;;;;8.65;100.00;153580.03;5038752;28;20818;-74
2024/03/04 07:43:14;;;;;;;33.90;19.80;;;;;;;8.65;100.00;153580.03;5040211;28;20536;-75
2024/03/04 07:45:40;;;;;;;25.63;18.03;;;;;;;8.67;100.00;153585.22;5052984;28;20468;-75
2024/03/04 07:48:07;;;;;;;32.80;19.90;;;;;;;8.67;100.00;153585.22;5040819;28;20976;-75
2024/03/04 07:50:35;;;;;;;38.73;20.77;;;;;;;8.68;100.00;153587.81;5038462;28;20537;-75
2024/03/04 07:53:02;;;;;;;29.27;18.07;;;;;;;8.70;100.00;153594.28;5019511;28;20736;-75
2024/03/04 07:55:29;;;;;;;34.07;19.60;;;;;;;8.70;100.00;153594.28;5037788;28;20985;-75
2024/03/04 07:57:55;;;;;;;32.73;19.10;;;;;;;8.71;100.00;153595.56;5036234;28;20478;-75
2024/03/04 08:00:22;;;;;;;33.97;22.00;;;;;;;8.73;100.00;153602.03;5037747;28;20866;-74
2024/03/04 08:02:48;;;;;;;28.57;19.27;;;;;;;8.74;100.00;153603.28;5036971;28;21007;-75
2024/03/04 08:05:15;;;;;;;32.20;18.50;;;;;;;8.75;100.00;153605.91;5053488;28;20518;-75
2024/03/04 08:07:43;;;;;;;34.93;18.33;;;;;;;8.75;100.00;153605.91;5037020;28;20506;-75
2024/03/04 08:10:11;;;;;;;29.67;17.30;;;;;;;8.75;100.00;153605.91;5049480;28;20455;-74
2024/03/04 08:12:37;;;;;;;27.07;17.30;;;;;;;8.76;100.00;153608.50;5036622;28;20478;-75
2024/03/04 08:15:04;;;;;;;34.17;19.57;;;;;;;8.76;100.00;153608.50;5037030;28;20818;-75
2024/03/04 08:17:32;;;;;;;32.67;19.37;;;;;;;8.78;100.00;153613.66;5036655;28;20506;-74
2024/03/04 08:19:59;;;;;;;29.30;18.50;;;;;;;8.80;100.00;153618.81;5037634;28;20458;-74
2024/03/04 08:22:25;;;;;;;27.43;16.43;;;;;;;8.80;100.00;153620.13;5036978;28;20493;-74
2024/03/04 08:24:53;;;;;;;32.87;19.10;;;;;;;8.80;100.00;153618.81;5038103;28;20482;-74
2024/03/04 08:27:20;;;;;;;29.03;19.00;;;;;;;8.81;100.00;153621.41;5035466;28;20829;-75
2024/03/04 08:29:48;;;;;;;32.23;18.87;;;;;;;8.81;100.00;153621.41;5037186;28;20893;-75
2024/03/04 08:32:14;;;;;;;30.73;17.47;;;;;;;8.82;100.00;153625.28;5039024;28;20457;-75
2024/03/04 08:34:40;;;;;;;28.37;17.83;;;;;;;8.86;100.00;153634.34;5035093;28;21040;-74
2024/03/04 08:37:06;;;;;;;33.60;19.47;;;;;;;8.88;100.00;153639.50;5052214;28;20459;-74
2024/03/04 08:39:33;;;;;;;31.97;18.90;;;;;;;8.88;100.00;153639.50;5035970;28;20237;-75
2024/03/04 08:42:04;;;;;;;37.13;18.23;;;;;;;8.88;100.00;153639.50;5036770;28;20489;-74
2024/03/04 08:44:31;;;;;;;30.57;19.70;;;;;;;8.89;100.00;153643.41;5035683;28;20478;-75
2024/03/04 08:46:57;;;;;;;30.47;18.90;;;;;;;8.88;100.00;153639.50;5052462;28;20465;-75
2024/03/04 08:49:24;;;;;;;28.57;17.87;;;;;;;8.90;100.00;153644.66;5034673;28;20875;-75
2024/03/04 08:51:51;;;;;;;33.33;18.17;;;;;;;8.90;100.00;153644.66;5051776;28;20466;-75
2024/03/04 08:54:18;;;;;;;27.07;16.93;;;;;;;8.92;100.00;153649.88;5049726;28;20453;-75
2024/03/04 08:56:45;;;;;;;29.43;19.67;;;;;;;8.94;100.00;153655.03;5035412;28;21027;-74
2024/03/04 08:59:12;;;;;;;34.87;19.30;;;;;;;8.92;100.00;153651.13;5050044;28;20479;-74
2024/03/04 09:01:39;;;;;;;31.57;18.17;;;;;;;8.93;100.00;153652.44;5035520;28;21977;-74
2024/03/04 09:04:25;;;;;;;27.33;17.00;;;;;;;8.92;100.00;153651.13;5034643;28;20462;-75
2024/03/04 09:06:52;;;;;;;28.93;17.53;;;;;;;8.95;100.00;153657.59;5035765;28;20482;-75
2024/03/04 09:09:18;;;;;;;32.40;19.20;;;;;;;8.94;100.00;153656.34;5035229;28;20820;-74
2024/03/04 09:11:45;;;;;;;29.40;18.40;;;;;;;8.94;100.00;153655.03;5037115;28;20544;-74
2024/03/04 09:14:13;;;;;;;32.40;19.17;;;;;;;8.97;100.00;153662.81;5034306;28;20458;-75
2024/03/04 09:16:39;;;;;;;28.17;17.70;;;;;;;9.01;100.00;153673.13;5036205;28;20991;-74
2024/03/04 09:19:06;;;;;;;25.47;17.80;;;;;;;9.02;100.00;153677.03;5036084;28;20451;-75
2024/03/04 09:21:32;;;;;;;30.03;17.83;;;;;;;9.02;100.00;153675.72;5035003;28;20463;-75
2024/03/04 09:23:59;;;;;;;27.47;16.47;;;;;;;9.02;100.00;153675.72;5035359;28;20474;-75
2024/03/04 09:26:26;;;;;;;31.70;18.00;;;;;;;9.03;100.00;153678.28;5036254;28;20470;-74
2024/03/04 09:28:53;;;;;;;31.17;19.20;;;;;;;9.09;100.00;153693.81;5037879;28;20446;-75
2024/03/04 09:31:21;;;;;;;29.80;19.20;;;;;;;9.11;100.00;153698.97;5022915;28;20471;-75
2024/03/04 09:33:47;;;;;;;30.57;16.80;;;;;;;9.14;100.00;153706.75;5038823;28;20444;-75
2024/03/04 09:36:14;;;;;;;31.63;17.80;;;;;;;9.18;100.00;153717.13;5037889;28;20463;-75
2024/03/04 09:38:42;;;;;;;29.00;18.00;;;;;;;9.24;100.00;153732.59;5045855;28;20478;-74
2024/03/04 09:41:09;;;;;;;33.57;19.20;;;;;;;9.26;100.00;153737.81;5039544;28;20462;-74
2024/03/04 09:43:38;;;;;;;34.33;19.20;;;;;;;9.36;100.00;153763.66;5038874;28;21036;-75
2024/03/04 09:46:06;;;;;;;39.47;18.97;;;;;;;9.34;100.00;153757.22;5040244;28;20537;-75
2024/03/04 09:48:34;;;;;;;38.33;20.40;;;;;;;9.32;100.00;153752.03;5036791;28;20442;-74
2024/03/04 09:51:03;;;;;;;33.50;18.70;;;;;;;9.32;100.00;153753.31;5044759;28;20506;-75
2024/03/04 09:53:38;;;;;;;40.10;21.63;;;;;;;9.31;100.00;153749.44;5039356;28;20835;-75
2024/03/04 09:56:05;;;;;;;34.27;20.17;;;;;;;9.29;100.00;153745.59;5045228;28;21056;-75
2024/03/04 09:58:33;;;;;;;38.70;21.20;;;;;;;9.28;100.00;153742.97;5040029;28;20447;-75
2024/03/04 10:01:01;;;;;;;34.37;21.37;;;;;;;9.29;100.00;153745.59;5053425;28;20455;-75
2024/03/04 10:03:28;;;;;;;36.43;21.20;;;;;;;9.30;100.00;153746.84;5040291;28;20482;-75
2024/03/04 10:05:56;;;;;;;39.00;23.27;;;;;;;9.36;100.00;153763.66;5038558;28;20819;-75
2024/03/04 10:08:24;;;;;;;35.30;21.20;;;;;;;9.38;100.00;153768.84;5039615;28;20509;-75
2024/03/04 10:10:52;;;;;;;41.03;22.43;;;;;;;9.40;100.00;153774.00;5039565;28;20993;-76
2024/03/04 10:13:20;;;;;;;42.60;22.07;;;;;;;9.44;100.00;153783.06;5054030;28;20447;-75
2024/03/04 10:15:49;;;;;;;35.23;24.30;;;;;;;9.36;100.00;153763.66;5038612;28;20467;-75
2024/03/04 10:18:17;;;;;;;35.53;21.60;;;;;;;9.39;100.00;153771.44;5021619;28;20452;-75
2024/03/04 10:20:44;;;;;;;44.60;25.30;;;;;;;9.42;100.00;153779.22;5039163;28;20463;-75
2024/03/04 10:23:12;;;;;;;40.47;24.00;;;;;;;9.43;100.00;153780.47;5038194;28;20986;-75
2024/03/04 10:25:39;;;;;;;38.53;23.20;;;;;;;9.54;100.00;153810.25;5038755;28;20455;-75
2024/03/04 10:28:06;;;;;;;44.60;25.33;;;;;;;9.56;100.00;153815.41;5055570;28;20454;-75
2024/03/04 10:30:33;;;;;;;40.27;24.77;;;;;;;9.58;100.00;153820.56;5039940;28;20561;-75
2024/03/04 10:33:02;;;;;;;35.33;21.27;;;;;;;9.59;100.00;153823.16;5037630;28;22338;-75
2024/03/04 10:35:29;;;;;;;36.07;21.63;;;;;;;9.58;100.00;153820.56;5038654;28;20482;-75
2024/03/04 10:37:59;;;;;;;40.77;21.87;;;;;;;9.58;100.00;153820.56;5038355;28;20504;-75
2024/03/04 10:40:27;;;;;;;35.07;22.67;;;;;;;9.62;100.00;153830.94;5036504;28;20458;-76
2024/03/04 10:42:57;;;;;;;40.17;23.00;;;;;;;9.62;100.00;153829.63;5038898;28;20451;-76
2024/03/04 10:45:24;;;;;;;38.37;21.97;;;;;;;9.59;100.00;153823.16;5027190;28;20474;-75
2024/03/04 10:47:50;;;;;;;37.13;23.70;;;;;;;9.58;100.00;153820.56;5036595;28;20451;-75
2024/03/04 10:50:17;;;;;;;39.90;22.30;;;;;;;9.58;100.00;153820.56;5037882;28;20465;-75
2024/03/04 10:52:44;;;;;;;38.10;22.70;;;;;;;9.55;100.00;153811.53;5039375;28;20455;-75
2024/03/04 10:55:11;;;;;;;41.57;22.00;;;;;;;9.56;100.00;153815.41;5039038;28;20462;-75
2024/03/04 10:57:43;;;;;;;39.73;23.30;;;;;;;9.60;100.00;153825.78;5043082;28;20530;-74
2024/03/04 11:00:17;;;;;;;40.67;22.93;;;;;;;9.61;100.00;153828.34;5036591;28;20464;-76
2024/03/04 11:02:48;;;;;;;40.57;22.60;;;;;;;9.65;100.00;153838.72;5036803;28;20498;-75
2024/03/04 11:05:16;;;;;;;40.87;25.37;;;;;;;9.64;100.00;153836.09;5038948;28;20482;-75
2024/03/04 11:07:43;;;;;;;36.00;21.17;;;;;;;9.67;100.00;153843.88;5038384;28;20529;-75
2024/03/04 11:10:16;;;;;;;41.43;23.20;;;;;;;9.74;100.00;153860.72;5043135;28;20463;-74
2024/03/04 11:12:48;;;;;;;43.87;23.80;;;;;;;9.78;100.00;153871.03;5052116;28;20440;-74
2024/03/04 11:15:17;;;;;;;43.90;23.27;;;;;;;9.79;100.00;153873.66;5036489;28;20440;-75